• Join FlightAware (Why Join?)
  • Login
  • US Flag 
01:07PM EST


 

Airport Tracker/Info


-or-


 

Live Flight TrackerFlight Track Log ✈ N388HP ✈ 14-May-2013 ✈ KABI - KEDC

Flight Track Log - Related Links

Times and Time Zones

All times are in EDT time to prevent confusion due to time zone crossing. See the N388HP flight status page for this flight to view local times or setup timezone preferences in your user account.

Time Position Orientation Groundspeed Altitude Reporting Facility
EDT Latitude Longitude Course Direction KTS MPH feet Rate Location/Type
10:33PM 32.3075 -99.8025 138° Southeast 143 165 7,400  Level Fort Worth Center
10:34PM 32.2736 -99.8214 205° Southwest 143 165 8,800 1,140 Climbing Fort Worth Center
10:35PM 32.2440 -99.5012 133° Southeast  Level Estimated
10:35PM 32.2381 -99.8253 185° South 137 158 9,700  Level Fort Worth Center
10:36PM 32.2105 -99.4651 135° Southeast  Level Estimated
10:36PM 32.1986 -99.8217 176° South 142 163 10,800  Level Fort Worth Center
10:37PM 32.1768 -99.4294 138° Southeast  Level FlightAware Approximate
10:37PM 32.1569 -99.8158 173° South 147 169 11,700  Level Fort Worth Center
10:38PM 32.1431 -99.3937 138° Southeast  Level FlightAware Approximate
10:38PM 32.1194 -99.8050 166° South 147 169 12,900  Level Fort Worth Center
10:39PM 32.0803 -99.7844 156° South 147 169 14,000 1,080 Climbing Fort Worth Center
10:40PM 32.0497 -99.7492 136° Southeast 147 169 15,100 900 Climbing Fort Worth Center
10:41PM 32.0275 -99.7019 119° Southeast 152 175 15,900 720 Climbing Fort Worth Center
10:42PM 31.9992 -99.6572 127° Southeast 166 191 16,600 540 Climbing Fort Worth Center
10:43PM 31.9625 -99.6075 131° Southeast 183 211 17,000 180 Climbing Fort Worth Center
10:44PM 31.9214 -99.5550 133° Southeast 202 232 17,000  Level Fort Worth Center
10:45PM 31.8786 -99.5003 133° Southeast 212 244 17,000  Level Fort Worth Center
10:46PM 31.8378 -99.4456 131° Southeast 226 260 17,000  Level Fort Worth Center
10:47PM 31.7947 -99.3858 130° Southeast 226 260 17,000  Level Fort Worth Center
10:48PM 31.7519 -99.3289 131° Southeast 226 260 17,000  Level Fort Worth Center
10:49PM 31.7089 -99.2692 130° Southeast 226 260 17,000  Level Fort Worth Center
10:50PM 31.6639 -99.2147 134° Southeast 231 266 17,000  Level Fort Worth Center
10:51PM 31.6208 -99.1578 132° Southeast 231 266 17,000  Level Fort Worth Center
10:52PM 31.5778 -99.0958 129° Southeast 231 266 17,000  Level Fort Worth Center
10:54PM 31.4911 -98.9792 131° Southeast 239 275 17,000  Level Houston Center
10:55PM 31.4456 -98.9208 132° Southeast 240 276 17,000  Level Houston Center
10:56PM 31.4014 -98.8619 131° Southeast 239 275 17,000  Level Houston Center
10:57PM 31.3572 -98.8042 132° Southeast 237 273 17,000  Level Houston Center
10:58PM 31.3133 -98.7467 132° Southeast 235 270 17,000  Level Houston Center
10:59PM 31.2692 -98.6883 132° Southeast 236 272 17,000  Level Houston Center
11:00PM 31.2250 -98.6311 132° Southeast 236 272 17,000  Level Houston Center
11:01PM 31.1792 -98.5728 133° Southeast 240 276 17,000  Level Houston Center
11:02PM 31.1356 -98.5144 131° Southeast 238 274 17,000 -180 Level Houston Center
11:03PM 31.0897 -98.4567 133° Southeast 239 275 16,700 -420 Descending Houston Center
11:04PM 31.0458 -98.3989 132° Southeast 237 273 16,200 -540 Descending Houston Center
11:05PM 31.0006 -98.3414 133° Southeast 238 274 15,700 -540 Descending Houston Center
11:06PM 30.9556 -98.2844 133° Southeast 237 273 15,200 -720 Descending Houston Center
11:07PM 30.9128 -98.2281 131° Southeast 233 268 14,300 -1,020 Descending Houston Center
11:08PM 30.8722 -98.1764 132° Southeast 220 253 13,200 -1,140 Descending Houston Center
11:09PM 30.8314 -98.1242 132° Southeast 217 250 12,000 -1,200 Descending Houston Center
11:10PM 30.7897 -98.0714 133° Southeast 219 252 10,800 -1,200 Descending Houston Center
11:11PM 30.7494 -98.0189 132° Southeast 217 250 9,600 -1,200 Descending Houston Center
11:12PM 30.7117 -97.9703 132° Southeast 206 237 8,400 -1,140 Descending Houston Center
11:13PM 30.6778 -97.9256 131° Southeast 190 219 7,300 -1,080 Descending Houston Center
11:14PM 30.6428 -97.8817 133° Southeast 185 213 6,300 -1,080 Descending Houston Center
11:15PM 30.6058 -97.8356 133° Southeast 190 219 5,200 -1,140 Descending Houston Center
11:16PM 30.5719 -97.7914 132° Southeast 186 214 4,100 -1,020 Descending Houston Center
11:17PM 30.5383 -97.7494 133° Southeast 181 208 3,200 -780 Descending Houston Center
11:18PM 30.5086 -97.7103 131° Southeast 172 198 2,600 -420 Descending Houston Center
11:19PM 30.4836 -97.6772 131° Southeast 154 177 2,400 -240 Descending Houston Center
11:20PM 30.4581 -97.6447 132° Southeast 142 163 2,200 -420 Descending Houston Center
11:21PM 30.4333 -97.6128 132° Southeast 138 159 1,600 -600 Descending Houston Center
11:22PM 30.4139 -97.5869 131° Southeast 124 143 1,000 -480 Descending Houston Center
11:23PM 30.3956 -97.5611 129° Southeast 115 132 700 -300 Descending Houston Center